Time,TemperatureF,DewpointF,PressureIn,WindDirection,WindDirectionDegrees,WindSpeedMPH,WindSpeedGustMPH,Humidity,HourlyPrecipIn,Conditions,Clouds,dailyrainin,SolarRadiationWatts/m^2,SoftwareType,DateUTC
2013-06-04 00:02:00,45.0,44.0,-100.00,NE,48,0.0,6.0,95,0.00,,,0.01,0.000000,,2013-06-04 06:02:00,
2013-06-04 00:12:00,45.0,44.0,-100.00,NE,48,0.0,6.0,95,0.00,,,0.01,0.000000,,2013-06-04 06:12:00,
2013-06-04 00:32:00,46.0,45.0,-100.00,ENE,71,4.0,5.0,96,0.00,,,0.01,0.000000,,2013-06-04 06:32:00,
2013-06-04 00:42:00,46.0,45.0,-100.00,ENE,71,4.0,5.0,96,0.00,,,0.01,0.000000,,2013-06-04 06:42:00,
2013-06-04 00:52:00,46.0,45.0,-100.00,ENE,71,4.0,5.0,96,0.00,,,0.01,0.000000,,2013-06-04 06:52:00,
2013-06-04 01:02:00,46.0,45.0,-100.00,ENE,71,4.0,5.0,96,0.00,,,0.01,0.000000,,2013-06-04 07:02:00,
2013-06-04 01:12:00,46.0,45.0,-100.00,ENE,71,4.0,5.0,96,0.00,,,0.01,0.000000,,2013-06-04 07:12:00,
2013-06-04 01:32:00,47.0,45.0,-100.00,West,280,1.0,4.0,92,0.00,,,0.01,0.000000,,2013-06-04 07:32:00,
2013-06-04 01:42:00,47.0,45.0,-100.00,West,280,1.0,4.0,92,0.00,,,0.01,0.000000,,2013-06-04 07:42:00,
2013-06-04 01:52:00,47.0,45.0,-100.00,West,280,1.0,4.0,92,0.00,,,0.01,0.000000,,2013-06-04 07:52:00,
2013-06-04 02:02:00,47.0,45.0,-100.00,West,280,1.0,4.0,92,0.00,,,0.01,0.000000,,2013-06-04 08:02:00,
2013-06-04 02:12:00,47.0,45.0,-100.00,West,280,1.0,4.0,92,0.00,,,0.01,0.000000,,2013-06-04 08:12:00,
2013-06-04 02:32:00,48.0,45.0,-100.00,SW,219,2.0,4.0,91,0.00,,,0.01,0.000000,,2013-06-04 08:32:00,
2013-06-04 02:42:00,48.0,45.0,-100.00,SW,219,2.0,4.0,91,0.00,,,0.01,0.000000,,2013-06-04 08:42:00,
2013-06-04 02:52:00,48.0,45.0,-100.00,SW,219,2.0,4.0,91,0.00,,,0.01,0.000000,,2013-06-04 08:52:00,
2013-06-04 03:02:00,48.0,45.0,-100.00,SW,219,2.0,4.0,91,0.00,,,0.01,0.000000,,2013-06-04 09:02:00,
2013-06-04 03:12:00,48.0,45.0,-100.00,SW,219,2.0,4.0,91,0.00,,,0.01,0.000000,,2013-06-04 09:12:00,
2013-06-04 03:33:00,47.0,44.0,-100.00,South,181,2.0,5.0,90,0.00,,,0.01,0.000000,,2013-06-04 09:33:00,
2013-06-04 03:43:00,47.0,44.0,-100.00,South,181,2.0,5.0,90,0.00,,,0.01,0.000000,,2013-06-04 09:43:00,
2013-06-04 03:53:00,47.0,44.0,-100.00,South,181,2.0,5.0,90,0.00,,,0.01,0.000000,,2013-06-04 09:53:00,
2013-06-04 04:02:00,47.0,44.0,-100.00,South,181,2.0,5.0,90,0.00,,,0.01,0.000000,,2013-06-04 10:02:00,
2013-06-04 04:12:00,47.0,44.0,-100.00,South,181,2.0,5.0,90,0.00,,,0.01,0.000000,,2013-06-04 10:12:00,
2013-06-04 04:33:00,48.0,45.0,-100.00,SSW,196,1.0,4.0,91,0.00,,,0.00,0.000000,,2013-06-04 10:33:00,
2013-06-04 04:42:00,48.0,45.0,-100.00,SSW,196,1.0,4.0,91,0.00,,,0.00,0.000000,,2013-06-04 10:42:00,
2013-06-04 04:53:00,48.0,45.0,-100.00,SSW,196,1.0,4.0,91,0.00,,,0.00,0.000000,,2013-06-04 10:53:00,
2013-06-04 05:02:00,48.0,45.0,-100.00,SSW,196,1.0,4.0,91,0.00,,,0.00,0.000000,,2013-06-04 11:02:00,
2013-06-04 05:12:00,48.0,45.0,-100.00,SSW,196,1.0,4.0,91,0.00,,,0.00,0.000000,,2013-06-04 11:12:00,
2013-06-04 05:32:00,47.0,45.0,-100.00,SSW,196,1.0,4.0,92,0.00,,,0.00,0.000000,,2013-06-04 11:32:00,
2013-06-04 05:43:00,47.0,45.0,-100.00,SSW,196,1.0,4.0,92,0.00,,,0.00,0.000000,,2013-06-04 11:43:00,
2013-06-04 05:52:00,47.0,45.0,-100.00,SSW,196,1.0,4.0,92,0.00,,,0.00,0.000000,,2013-06-04 11:52:00,
2013-06-04 06:02:00,47.0,45.0,-100.00,SSW,196,1.0,4.0,92,0.00,,,0.00,0.000000,,2013-06-04 12:02:00,
2013-06-04 06:12:00,47.0,45.0,-100.00,SSW,196,1.0,4.0,92,0.00,,,0.00,0.000000,,2013-06-04 12:12:00,
2013-06-04 06:32:00,47.0,45.0,-100.00,ESE,106,0.0,1.0,93,0.00,,,0.00,1.000000,,2013-06-04 12:32:00,
2013-06-04 06:42:00,47.0,45.0,-100.00,ESE,106,0.0,1.0,93,0.00,,,0.00,1.000000,,2013-06-04 12:42:00,
2013-06-04 06:52:00,47.0,45.0,-100.00,ESE,106,0.0,1.0,93,0.00,,,0.00,1.000000,,2013-06-04 12:52:00,
2013-06-04 07:02:00,47.0,45.0,-100.00,ESE,106,0.0,1.0,93,0.00,,,0.00,1.000000,,2013-06-04 13:02:00,
2013-06-04 07:12:00,47.0,45.0,-100.00,ESE,106,0.0,1.0,93,0.00,,,0.00,1.000000,,2013-06-04 13:12:00,
2013-06-04 07:32:00,49.0,45.0,-100.00,South,180,1.0,3.0,86,0.00,,,0.00,25.000000,,2013-06-04 13:32:00,
2013-06-04 07:42:00,49.0,45.0,-100.00,South,180,1.0,3.0,86,0.00,,,0.00,25.000000,,2013-06-04 13:42:00,
2013-06-04 07:52:00,49.0,45.0,-100.00,South,180,1.0,3.0,86,0.00,,,0.00,25.000000,,2013-06-04 13:52:00,
2013-06-04 08:02:00,49.0,45.0,-100.00,South,180,1.0,3.0,86,0.00,,,0.00,25.000000,,2013-06-04 14:02:00,
2013-06-04 08:12:00,49.0,45.0,-100.00,South,180,1.0,3.0,86,0.00,,,0.00,25.000000,,2013-06-04 14:12:00,
2013-06-04 08:32:00,52.0,43.0,-100.00,North,356,3.0,7.0,72,0.00,,,0.00,103.000000,,2013-06-04 14:32:00,
2013-06-04 08:43:00,52.0,43.0,-100.00,North,356,3.0,7.0,72,0.00,,,0.00,103.000000,,2013-06-04 14:43:00,
2013-06-04 08:52:00,52.0,43.0,-100.00,North,356,3.0,7.0,72,0.00,,,0.00,103.000000,,2013-06-04 14:52:00,
2013-06-04 09:02:00,52.0,43.0,-100.00,North,356,3.0,7.0,72,0.00,,,0.00,103.000000,,2013-06-04 15:02:00,
2013-06-04 09:12:00,52.0,43.0,-100.00,North,356,3.0,7.0,72,0.00,,,0.00,103.000000,,2013-06-04 15:12:00,
2013-06-04 09:33:00,54.0,43.0,-100.00,North,355,4.0,11.0,67,0.00,,,0.00,194.000000,,2013-06-04 15:33:00,
2013-06-04 09:42:00,54.0,43.0,-100.00,North,355,4.0,11.0,67,0.00,,,0.00,194.000000,,2013-06-04 15:42:00,
2013-06-04 09:53:00,54.0,43.0,-100.00,North,355,4.0,11.0,67,0.00,,,0.00,194.000000,,2013-06-04 15:53:00,
2013-06-04 10:03:00,54.0,43.0,-100.00,North,355,4.0,11.0,67,0.00,,,0.00,194.000000,,2013-06-04 16:03:00,
2013-06-04 10:12:00,54.0,43.0,-100.00,North,355,4.0,11.0,67,0.00,,,0.00,194.000000,,2013-06-04 16:12:00,
2013-06-04 10:33:00,59.0,43.0,-100.00,NNE,14,6.0,11.0,55,0.00,,,0.00,498.000000,,2013-06-04 16:33:00,
2013-06-04 10:42:00,59.0,43.0,-100.00,NNE,14,6.0,11.0,55,0.00,,,0.00,498.000000,,2013-06-04 16:42:00,
2013-06-04 10:53:00,59.0,43.0,-100.00,NNE,14,6.0,11.0,55,0.00,,,0.00,498.000000,,2013-06-04 16:53:00,
2013-06-04 11:02:00,59.0,43.0,-100.00,NNE,14,6.0,11.0,55,0.00,,,0.00,498.000000,,2013-06-04 17:02:00,
2013-06-04 11:12:00,59.0,43.0,-100.00,NNE,14,6.0,11.0,55,0.00,,,0.00,498.000000,,2013-06-04 17:12:00,
2013-06-04 11:33:00,65.0,43.0,-100.00,WNW,284,4.0,10.0,44,0.00,,,0.00,851.000000,,2013-06-04 17:33:00,
2013-06-04 11:42:00,65.0,43.0,-100.00,WNW,284,4.0,10.0,44,0.00,,,0.00,851.000000,,2013-06-04 17:42:00,
2013-06-04 11:52:00,65.0,43.0,-100.00,WNW,284,4.0,10.0,44,0.00,,,0.00,851.000000,,2013-06-04 17:52:00,
2013-06-04 12:02:00,65.0,43.0,-100.00,WNW,284,4.0,10.0,44,0.00,,,0.00,851.000000,,2013-06-04 18:02:00,
2013-06-04 12:12:00,65.0,43.0,-100.00,WNW,284,4.0,10.0,44,0.00,,,0.00,851.000000,,2013-06-04 18:12:00,
2013-06-04 12:32:00,65.0,39.0,-100.00,SE,127,4.0,8.0,39,0.00,,,0.00,998.000000,,2013-06-04 18:32:00,
2013-06-04 12:42:00,65.0,39.0,-100.00,SE,127,4.0,8.0,39,0.00,,,0.00,998.000000,,2013-06-04 18:42:00,
2013-06-04 12:52:00,65.0,39.0,-100.00,SE,127,4.0,8.0,39,0.00,,,0.00,998.000000,,2013-06-04 18:52:00,
2013-06-04 13:02:00,65.0,39.0,-100.00,SE,127,4.0,8.0,39,0.00,,,0.00,998.000000,,2013-06-04 19:02:00,
2013-06-04 13:12:00,65.0,39.0,-100.00,SE,127,4.0,8.0,39,0.00,,,0.00,998.000000,,2013-06-04 19:12:00,
2013-06-04 13:33:00,68.0,39.0,-100.00,WNW,289,4.0,10.0,35,0.00,,,0.00,1025.000000,,2013-06-04 19:33:00,
2013-06-04 13:42:00,68.0,39.0,-100.00,WNW,289,4.0,10.0,35,0.00,,,0.00,1025.000000,,2013-06-04 19:42:00,
2013-06-04 13:52:00,68.0,39.0,-100.00,WNW,289,4.0,10.0,35,0.00,,,0.00,1025.000000,,2013-06-04 19:52:00,
2013-06-04 14:02:00,68.0,39.0,-100.00,WNW,289,4.0,10.0,35,0.00,,,0.00,1025.000000,,2013-06-04 20:02:00,
2013-06-04 14:12:00,68.0,39.0,-100.00,WNW,289,4.0,10.0,35,0.00,,,0.00,1025.000000,,2013-06-04 20:12:00,
2013-06-04 14:32:00,69.0,40.0,-100.00,WNW,296,4.0,9.0,35,0.00,,,0.00,1077.000000,,2013-06-04 20:32:00,
2013-06-04 14:42:00,69.0,40.0,-100.00,WNW,296,4.0,9.0,35,0.00,,,0.00,1077.000000,,2013-06-04 20:42:00,
2013-06-04 14:53:00,69.0,40.0,-100.00,WNW,296,4.0,9.0,35,0.00,,,0.00,1077.000000,,2013-06-04 20:53:00,
2013-06-04 15:02:00,69.0,40.0,-100.00,WNW,296,4.0,9.0,35,0.00,,,0.00,1077.000000,,2013-06-04 21:02:00,
2013-06-04 15:11:00,69.0,40.0,-100.00,WNW,296,4.0,9.0,35,0.00,,,0.00,1077.000000,,2013-06-04 21:11:00,
2013-06-04 15:33:00,70.0,45.0,-100.00,NNE,22,4.0,12.0,40,0.00,,,0.00,1043.000000,,2013-06-04 21:33:00,
2013-06-04 15:42:00,70.0,45.0,-100.00,NNE,22,4.0,12.0,40,0.00,,,0.00,1043.000000,,2013-06-04 21:42:00,
2013-06-04 15:53:00,70.0,45.0,-100.00,NNE,22,4.0,12.0,40,0.00,,,0.00,1043.000000,,2013-06-04 21:53:00,
2013-06-04 16:02:00,70.0,45.0,-100.00,NNE,22,4.0,12.0,40,0.00,,,0.00,1043.000000,,2013-06-04 22:02:00,
2013-06-04 16:12:00,70.0,45.0,-100.00,NNE,22,4.0,12.0,40,0.00,,,0.00,1043.000000,,2013-06-04 22:12:00,
2013-06-04 16:33:00,73.0,41.0,-100.00,NNE,17,3.0,11.0,32,0.00,,,0.00,1026.000000,,2013-06-04 22:33:00,
2013-06-04 16:42:00,73.0,41.0,-100.00,NNE,17,3.0,11.0,32,0.00,,,0.00,1026.000000,,2013-06-04 22:42:00,
2013-06-04 16:52:00,73.0,41.0,-100.00,NNE,17,3.0,11.0,32,0.00,,,0.00,1026.000000,,2013-06-04 22:52:00,
2013-06-04 17:02:00,73.0,41.0,-100.00,NNE,17,3.0,11.0,32,0.00,,,0.00,1026.000000,,2013-06-04 23:02:00,
2013-06-04 17:11:00,73.0,41.0,-100.00,NNE,17,3.0,11.0,32,0.00,,,0.00,1026.000000,,2013-06-04 23:11:00,
2013-06-04 17:32:00,73.0,43.0,-100.00,NW,315,4.0,9.0,34,0.00,,,0.00,890.000000,,2013-06-04 23:32:00,
2013-06-04 17:42:00,73.0,43.0,-100.00,NW,315,4.0,9.0,34,0.00,,,0.00,890.000000,,2013-06-04 23:42:00,
2013-06-04 17:52:00,73.0,43.0,-100.00,NW,315,4.0,9.0,34,0.00,,,0.00,890.000000,,2013-06-04 23:52:00,
2013-06-04 18:02:00,73.0,43.0,-100.00,NW,315,4.0,9.0,34,0.00,,,0.00,890.000000,,2013-06-05 00:02:00,
2013-06-04 18:11:00,73.0,43.0,-100.00,NW,315,4.0,9.0,34,0.00,,,0.00,890.000000,,2013-06-05 00:11:00,
2013-06-04 18:33:00,74.0,42.0,-100.00,NW,316,4.0,11.0,32,0.00,,,0.00,713.000000,,2013-06-05 00:33:00,
2013-06-04 18:42:00,74.0,42.0,-100.00,NW,316,4.0,11.0,32,0.00,,,0.00,713.000000,,2013-06-05 00:42:00,
2013-06-04 18:52:00,74.0,42.0,-100.00,NW,316,4.0,11.0,32,0.00,,,0.00,713.000000,,2013-06-05 00:52:00,
2013-06-04 19:02:00,74.0,42.0,-100.00,NW,316,4.0,11.0,32,0.00,,,0.00,713.000000,,2013-06-05 01:02:00,
2013-06-04 19:12:00,74.0,42.0,-100.00,NW,316,4.0,11.0,32,0.00,,,0.00,713.000000,,2013-06-05 01:12:00,
2013-06-04 19:32:00,72.0,41.0,-100.00,NNW,344,3.0,8.0,32,0.00,,,0.00,507.000000,,2013-06-05 01:32:00,
2013-06-04 19:42:00,72.0,41.0,-100.00,NNW,344,3.0,8.0,32,0.00,,,0.00,507.000000,,2013-06-05 01:42:00,
2013-06-04 19:52:00,72.0,41.0,-100.00,NNW,344,3.0,8.0,32,0.00,,,0.00,507.000000,,2013-06-05 01:52:00,
2013-06-04 20:02:00,72.0,41.0,-100.00,NNW,344,3.0,8.0,32,0.00,,,0.00,507.000000,,2013-06-05 02:02:00,
2013-06-04 20:12:00,72.0,41.0,-100.00,NNW,344,3.0,8.0,32,0.00,,,0.00,507.000000,,2013-06-05 02:12:00,
2013-06-04 20:32:00,67.0,41.0,-100.00,NW,323,3.0,5.0,39,0.00,,,0.00,295.000000,,2013-06-05 02:32:00,
2013-06-04 20:42:00,67.0,41.0,-100.00,NW,323,3.0,5.0,39,0.00,,,0.00,295.000000,,2013-06-05 02:42:00,
2013-06-04 20:52:00,67.0,41.0,-100.00,NW,323,3.0,5.0,39,0.00,,,0.00,295.000000,,2013-06-05 02:52:00,
2013-06-04 21:02:00,67.0,41.0,-100.00,NW,323,3.0,5.0,39,0.00,,,0.00,295.000000,,2013-06-05 03:02:00,
2013-06-04 21:12:00,67.0,41.0,-100.00,NW,323,3.0,5.0,39,0.00,,,0.00,295.000000,,2013-06-05 03:12:00,
2013-06-04 21:33:00,58.0,40.0,-100.00,SSW,206,0.0,3.0,51,0.00,,,0.00,72.000000,,2013-06-05 03:33:00,
2013-06-04 22:02:00,58.0,40.0,-100.00,SSW,206,0.0,3.0,51,0.00,,,0.00,72.000000,,2013-06-05 04:02:00,
2013-06-04 22:12:00,58.0,40.0,-100.00,SSW,206,0.0,3.0,51,0.00,,,0.00,72.000000,,2013-06-05 04:12:00,
2013-06-04 22:33:00,51.0,39.0,-100.00,SE,137,3.0,5.0,64,0.00,,,0.00,3.000000,,2013-06-05 04:33:00,
2013-06-04 23:02:00,51.0,39.0,-100.00,SE,137,3.0,5.0,64,0.00,,,0.00,3.000000,,2013-06-05 05:02:00,
2013-06-04 23:12:00,51.0,39.0,-100.00,SE,137,3.0,5.0,64,0.00,,,0.00,3.000000,,2013-06-05 05:12:00,
2013-06-04 23:32:00,48.0,40.0,-100.00,SE,128,5.0,6.0,75,0.00,,,-99.99,0.000000,,2013-06-05 05:32:00,
2013-06-04 23:42:00,48.0,40.0,-100.00,SE,128,5.0,6.0,75,0.00,,,-99.99,0.000000,,2013-06-05 05:42:00,
2013-06-04 23:52:00,48.0,40.0,-100.00,SE,128,5.0,6.0,75,0.00,,,-99.99,0.000000,,2013-06-05 05:52:00,